Oelwein, Iowa
Current Conditions -  °F | °C
As of 8:15 PM on Saturday 20 Dec 2014 (Local Time) from KOLZ Reporting Station
Haze Haze  
Wind Chill: 24°   Ceiling: 200
Heat Index: 32°   Visibility: 0.75mi
Dew Point: 32°   Wind: 10mph
Humidity: 100%   Direction: 140°SE
Pressure: 30.16"   Gusts: NA
Location:  42.68°N, 91.91°W
Report Text: KOLZ 210215Z AUTO 14009KT 3/4SM BR OVC002 M00/M00 A3016 RMK AO2
Loading
Personal Weather Stations






























Interactive Weather Map New forecast layout! Learn more

10-Day Weather Forecast

Advertisements
Track Severe Weather on mobile